sensor_id;sensor_type;location;lat;lon;timestamp;pressure;altitude;pressure_sealevel;temperature
19061;BMP280;9663;48.996;8.334;2023-12-20T00:01:07;100403.50;;;12.81
19061;BMP280;9663;48.996;8.334;2023-12-20T00:03:32;100405.19;;;12.79
19061;BMP280;9663;48.996;8.334;2023-12-20T00:05:58;100409.47;;;12.78
19061;BMP280;9663;48.996;8.334;2023-12-20T00:08:24;100416.22;;;12.77
19061;BMP280;9663;48.996;8.334;2023-12-20T00:10:50;100409.47;;;12.76
19061;BMP280;9663;48.996;8.334;2023-12-20T00:13:15;100406.94;;;12.76
19061;BMP280;9663;48.996;8.334;2023-12-20T00:15:41;100389.97;;;12.75
19061;BMP280;9663;48.996;8.334;2023-12-20T00:18:07;100410.31;;;12.75
19061;BMP280;9663;48.996;8.334;2023-12-20T00:20:32;100411.16;;;12.74
19061;BMP280;9663;48.996;8.334;2023-12-20T00:22:58;100411.22;;;12.73
19061;BMP280;9663;48.996;8.334;2023-12-20T00:25:24;100407.78;;;12.74
19061;BMP280;9663;48.996;8.334;2023-12-20T00:27:50;100407.81;;;12.72
19061;BMP280;9663;48.996;8.334;2023-12-20T00:30:16;100406.97;;;12.73
19061;BMP280;9663;48.996;8.334;2023-12-20T00:32:42;100395.91;;;12.74
19061;BMP280;9663;48.996;8.334;2023-12-20T00:35:16;100406.06;;;12.76
19061;BMP280;9663;48.996;8.334;2023-12-20T00:37:43;100403.53;;;12.76
19061;BMP280;9663;48.996;8.334;2023-12-20T00:40:09;100417.13;;;12.76
19061;BMP280;9663;48.996;8.334;2023-12-20T00:42:35;100410.31;;;12.77
19061;BMP280;9663;48.996;8.334;2023-12-20T00:45:01;100416.25;;;12.74
19061;BMP280;9663;48.996;8.334;2023-12-20T00:47:28;100412.88;;;12.75
19061;BMP280;9663;48.996;8.334;2023-12-20T00:49:53;100425.59;;;12.75
19061;BMP280;9663;48.996;8.334;2023-12-20T00:52:19;100415.41;;;12.75
19061;BMP280;9663;48.996;8.334;2023-12-20T00:54:45;100423.88;;;12.77
19061;BMP280;9663;48.996;8.334;2023-12-20T00:57:11;100417.94;;;12.78
19061;BMP280;9663;48.996;8.334;2023-12-20T00:59:36;100426.41;;;12.77
19061;BMP280;9663;48.996;8.334;2023-12-20T01:02:02;100450.16;;;12.79
19061;BMP280;9663;48.996;8.334;2023-12-20T01:04:28;100424.69;;;12.79
19061;BMP280;9663;48.996;8.334;2023-12-20T01:06:53;100436.59;;;12.77
19061;BMP280;9663;48.996;8.334;2023-12-20T01:09:19;100431.50;;;12.77
19061;BMP280;9663;48.996;8.334;2023-12-20T01:11:45;100428.13;;;12.78
19061;BMP280;9663;48.996;8.334;2023-12-20T01:14:14;100418.78;;;12.78
19061;BMP280;9663;48.996;8.334;2023-12-20T01:16:39;100410.31;;;12.78
19061;BMP280;9663;48.996;8.334;2023-12-20T01:19:05;100411.13;;;12.78
19061;BMP280;9663;48.996;8.334;2023-12-20T01:21:30;100406.88;;;12.79
19061;BMP280;9663;48.996;8.334;2023-12-20T01:23:56;100400.94;;;12.80
19061;BMP280;9663;48.996;8.334;2023-12-20T01:26:22;100409.41;;;12.79
19061;BMP280;9663;48.996;8.334;2023-12-20T01:28:47;100406.03;;;12.80
19061;BMP280;9663;48.996;8.334;2023-12-20T01:31:13;100398.41;;;12.81
19061;BMP280;9663;48.996;8.334;2023-12-20T01:33:39;100400.06;;;12.84
19061;BMP280;9663;48.996;8.334;2023-12-20T01:36:05;100390.75;;;12.84
19061;BMP280;9663;48.996;8.334;2023-12-20T01:38:31;100394.13;;;12.85
19061;BMP280;9663;48.996;8.334;2023-12-20T01:40:56;100402.59;;;12.87
19061;BMP280;9663;48.996;8.334;2023-12-20T01:43:22;100400.91;;;12.86
19061;BMP280;9663;48.996;8.334;2023-12-20T01:45:48;100394.94;;;12.88
19061;BMP280;9663;48.996;8.334;2023-12-20T01:48:15;100389.81;;;12.90
19061;BMP280;9663;48.996;8.334;2023-12-20T01:50:42;100391.53;;;12.91
19061;BMP280;9663;48.996;8.334;2023-12-20T01:53:12;100384.69;;;12.93
19061;BMP280;9663;48.996;8.334;2023-12-20T01:55:40;100391.50;;;12.92
19061;BMP280;9663;48.996;8.334;2023-12-20T01:58:09;100384.69;;;12.93
19061;BMP280;9663;48.996;8.334;2023-12-20T02:00:37;100383.84;;;12.94
19061;BMP280;9663;48.996;8.334;2023-12-20T02:03:03;100380.44;;;12.95
19061;BMP280;9663;48.996;8.334;2023-12-20T02:05:34;100386.34;;;12.97
19061;BMP280;9663;48.996;8.334;2023-12-20T02:08:00;100391.41;;;12.98
19061;BMP280;9663;48.996;8.334;2023-12-20T02:10:27;100398.22;;;12.99
19061;BMP280;9663;48.996;8.334;2023-12-20T02:12:52;100395.63;;;13.02
19061;BMP280;9663;48.996;8.334;2023-12-20T02:15:18;100391.34;;;13.04
19061;BMP280;9663;48.996;8.334;2023-12-20T02:17:46;100386.25;;;13.06
19061;BMP280;9663;48.996;8.334;2023-12-20T02:20:12;100387.09;;;13.06
19061;BMP280;9663;48.996;8.334;2023-12-20T02:22:38;100390.44;;;13.10
19061;BMP280;9663;48.996;8.334;2023-12-20T02:25:04;100377.69;;;13.10
19061;BMP280;9663;48.996;8.334;2023-12-20T02:27:30;100381.06;;;13.12
19061;BMP280;9663;48.996;8.334;2023-12-20T02:29:55;100391.25;;;13.12
19061;BMP280;9663;48.996;8.334;2023-12-20T02:32:22;100386.16;;;13.12
19061;BMP280;9663;48.996;8.334;2023-12-20T02:34:51;100389.56;;;13.14
19061;BMP280;9663;48.996;8.334;2023-12-20T02:37:17;100389.50;;;13.15
19061;BMP280;9663;48.996;8.334;2023-12-20T02:39:43;100391.19;;;13.18
19061;BMP280;9663;48.996;8.334;2023-12-20T02:42:08;100399.66;;;13.18
19061;BMP280;9663;48.996;8.334;2023-12-20T02:44:34;100398.81;;;13.18
19061;BMP280;9663;48.996;8.334;2023-12-20T02:47:00;100403.91;;;13.19
19061;BMP280;9663;48.996;8.334;2023-12-20T02:49:25;100401.34;;;13.21
19061;BMP280;9663;48.996;8.334;2023-12-20T02:51:51;100409.81;;;13.20
19061;BMP280;9663;48.996;8.334;2023-12-20T02:54:17;100411.53;;;13.21
19061;BMP280;9663;48.996;8.334;2023-12-20T02:56:42;100417.47;;;13.21
19061;BMP280;9663;48.996;8.334;2023-12-20T02:59:08;100416.63;;;13.21
19061;BMP280;9663;48.996;8.334;2023-12-20T03:01:35;100413.19;;;13.23
19061;BMP280;9663;48.996;8.334;2023-12-20T03:04:01;100414.06;;;13.22
19061;BMP280;9663;48.996;8.334;2023-12-20T03:06:27;100423.38;;;13.22
19061;BMP280;9663;48.996;8.334;2023-12-20T03:08:52;100415.75;;;13.20
19061;BMP280;9663;48.996;8.334;2023-12-20T03:11:18;100410.66;;;13.20
19061;BMP280;9663;48.996;8.334;2023-12-20T03:13:44;100412.31;;;13.24
19061;BMP280;9663;48.996;8.334;2023-12-20T03:16:11;100418.22;;;13.29
19061;BMP280;9663;48.996;8.334;2023-12-20T03:18:37;100411.38;;;13.31
19061;BMP280;9663;48.996;8.334;2023-12-20T03:21:04;100406.28;;;13.32
19061;BMP280;9663;48.996;8.334;2023-12-20T03:23:30;100409.63;;;13.34
19061;BMP280;9663;48.996;8.334;2023-12-20T03:25:58;100407.94;;;13.35
19061;BMP280;9663;48.996;8.334;2023-12-20T03:28:24;100402.81;;;13.36
19061;BMP280;9663;48.996;8.334;2023-12-20T03:30:50;100411.34;;;13.35
19061;BMP280;9663;48.996;8.334;2023-12-20T03:33:15;100415.50;;;13.39
19061;BMP280;9663;48.996;8.334;2023-12-20T03:35:41;100429.13;;;13.40
19061;BMP280;9663;48.996;8.334;2023-12-20T03:38:07;100410.41;;;13.39
19061;BMP280;9663;48.996;8.334;2023-12-20T03:40:33;100408.69;;;13.41
19061;BMP280;9663;48.996;8.334;2023-12-20T03:42:59;100405.28;;;13.42
19061;BMP280;9663;48.996;8.334;2023-12-20T03:45:25;100409.56;;;13.42
19061;BMP280;9663;48.996;8.334;2023-12-20T03:47:51;100390.84;;;13.41
19061;BMP280;9663;48.996;8.334;2023-12-20T03:50:22;100393.41;;;13.41
19061;BMP280;9663;48.996;8.334;2023-12-20T03:52:48;100399.41;;;13.39
19061;BMP280;9663;48.996;8.334;2023-12-20T03:55:13;100425.72;;;13.38
19061;BMP280;9663;48.996;8.334;2023-12-20T03:57:39;100426.63;;;13.35
19061;BMP280;9663;48.996;8.334;2023-12-20T04:00:07;100426.63;;;13.35
19061;BMP280;9663;48.996;8.334;2023-12-20T04:02:42;100415.53;;;13.36
19061;BMP280;9663;48.996;8.334;2023-12-20T04:05:09;100420.69;;;13.35
19061;BMP280;9663;48.996;8.334;2023-12-20T04:07:36;100422.34;;;13.36
19061;BMP280;9663;48.996;8.334;2023-12-20T04:10:02;100427.44;;;13.37
19061;BMP280;9663;48.996;8.334;2023-12-20T04:12:29;100441.00;;;13.39
19061;BMP280;9663;48.996;8.334;2023-12-20T04:14:56;100435.91;;;13.39
19061;BMP280;9663;48.996;8.334;2023-12-20T04:17:21;100431.69;;;13.38
19061;BMP280;9663;48.996;8.334;2023-12-20T04:19:49;100431.66;;;13.40
19061;BMP280;9663;48.996;8.334;2023-12-20T04:22:15;100430.81;;;13.39
19061;BMP280;9663;48.996;8.334;2023-12-20T04:24:41;100429.13;;;13.40
19061;BMP280;9663;48.996;8.334;2023-12-20T04:27:09;100426.50;;;13.43
19061;BMP280;9663;48.996;8.334;2023-12-20T04:29:35;100441.78;;;13.44
19061;BMP280;9663;48.996;8.334;2023-12-20T04:32:00;100442.63;;;13.45
19061;BMP280;9663;48.996;8.334;2023-12-20T04:34:26;100443.50;;;13.44
19061;BMP280;9663;48.996;8.334;2023-12-20T04:36:52;100443.50;;;13.44
19061;BMP280;9663;48.996;8.334;2023-12-20T04:39:18;100452.84;;;13.43
19061;BMP280;9663;48.996;8.334;2023-12-20T04:41:44;100452.00;;;13.41
19061;BMP280;9663;48.996;8.334;2023-12-20T04:44:09;100443.50;;;13.42
19061;BMP280;9663;48.996;8.334;2023-12-20T04:46:35;100437.56;;;13.43
19061;BMP280;9663;48.996;8.334;2023-12-20T04:49:01;100455.41;;;13.43
19061;BMP280;9663;48.996;8.334;2023-12-20T04:51:27;100451.97;;;13.43
19061;BMP280;9663;48.996;8.334;2023-12-20T04:53:53;100457.06;;;13.43
19061;BMP280;9663;48.996;8.334;2023-12-20T04:56:18;100463.03;;;13.43
19061;BMP280;9663;48.996;8.334;2023-12-20T04:58:44;100463.03;;;13.43
19061;BMP280;9663;48.996;8.334;2023-12-20T05:01:09;100464.69;;;13.44
19061;BMP280;9663;48.996;8.334;2023-12-20T05:03:35;100468.13;;;13.43
19061;BMP280;9663;48.996;8.334;2023-12-20T05:06:01;100482.56;;;13.43
19061;BMP280;9663;48.996;8.334;2023-12-20T05:08:27;100481.72;;;13.42
19061;BMP280;9663;48.996;8.334;2023-12-20T05:10:56;100469.81;;;13.43
19061;BMP280;9663;48.996;8.334;2023-12-20T05:13:22;100470.69;;;13.43
19061;BMP280;9663;48.996;8.334;2023-12-20T05:15:47;100475.75;;;13.45
19061;BMP280;9663;48.996;8.334;2023-12-20T05:18:13;100468.94;;;13.45
19061;BMP280;9663;48.996;8.334;2023-12-20T05:20:40;100461.31;;;13.45
19061;BMP280;9663;48.996;8.334;2023-12-20T05:23:05;100480.88;;;13.43
19061;BMP280;9663;48.996;8.334;2023-12-20T05:25:31;100477.47;;;13.43
19061;BMP280;9663;48.996;8.334;2023-12-20T05:27:57;100471.50;;;13.44
19061;BMP280;9663;48.996;8.334;2023-12-20T05:30:23;100476.59;;;13.45
19061;BMP280;9663;48.996;8.334;2023-12-20T05:32:49;100480.00;;;13.44
19061;BMP280;9663;48.996;8.334;2023-12-20T05:35:15;100479.13;;;13.45
19061;BMP280;9663;48.996;8.334;2023-12-20T05:37:44;100486.78;;;13.47
19061;BMP280;9663;48.996;8.334;2023-12-20T05:40:11;100474.03;;;13.47
19061;BMP280;9663;48.996;8.334;2023-12-20T05:42:37;100477.41;;;13.47
19061;BMP280;9663;48.996;8.334;2023-12-20T05:45:04;100479.94;;;13.49
19061;BMP280;9663;48.996;8.334;2023-12-20T05:47:30;100482.50;;;13.47
19061;BMP280;9663;48.996;8.334;2023-12-20T05:49:56;100487.59;;;13.49
19061;BMP280;9663;48.996;8.334;2023-12-20T05:52:22;100496.06;;;13.51
19061;BMP280;9663;48.996;8.334;2023-12-20T05:54:48;100490.09;;;13.53
19061;BMP280;9663;48.996;8.334;2023-12-20T05:57:14;100494.31;;;13.53
19061;BMP280;9663;48.996;8.334;2023-12-20T05:59:40;100505.38;;;13.55
19061;BMP280;9663;48.996;8.334;2023-12-20T06:02:06;100508.75;;;13.55
19061;BMP280;9663;48.996;8.334;2023-12-20T06:04:32;100515.50;;;13.58
19061;BMP280;9663;48.996;8.334;2023-12-20T06:06:57;100525.69;;;13.58
19061;BMP280;9663;48.996;8.334;2023-12-20T06:09:23;100531.63;;;13.60
19061;BMP280;9663;48.996;8.334;2023-12-20T06:11:49;100536.75;;;13.58
19061;BMP280;9663;48.996;8.334;2023-12-20T06:14:15;100543.50;;;13.59
19061;BMP280;9663;48.996;8.334;2023-12-20T06:16:41;100533.34;;;13.58
19061;BMP280;9663;48.996;8.334;2023-12-20T06:19:06;100538.41;;;13.59
19061;BMP280;9663;48.996;8.334;2023-12-20T06:21:32;100546.03;;;13.62
19061;BMP280;9663;48.996;8.334;2023-12-20T06:24:02;100554.50;;;13.64
19061;BMP280;9663;48.996;8.334;2023-12-20T06:26:27;100551.94;;;13.64
19061;BMP280;9663;48.996;8.334;2023-12-20T06:28:53;100566.38;;;13.65
19061;BMP280;9663;48.996;8.334;2023-12-20T06:31:19;100574.88;;;13.64
19061;BMP280;9663;48.996;8.334;2023-12-20T06:33:45;100576.59;;;13.65
19061;BMP280;9663;48.996;8.334;2023-12-20T06:36:13;100565.50;;;13.67
19061;BMP280;9663;48.996;8.334;2023-12-20T06:38:39;100565.47;;;13.69
19061;BMP280;9663;48.996;8.334;2023-12-20T06:41:05;100579.94;;;13.70
19061;BMP280;9663;48.996;8.334;2023-12-20T06:43:31;100577.38;;;13.70
19061;BMP280;9663;48.996;8.334;2023-12-20T06:46:00;100578.22;;;13.70
19061;BMP280;9663;48.996;8.334;2023-12-20T06:48:26;100580.78;;;13.69
19061;BMP280;9663;48.996;8.334;2023-12-20T06:50:51;100591.84;;;13.69
19061;BMP280;9663;48.996;8.334;2023-12-20T06:53:17;100600.34;;;13.67
19061;BMP280;9663;48.996;8.334;2023-12-20T06:55:43;100598.72;;;13.63
19061;BMP280;9663;48.996;8.334;2023-12-20T06:58:08;100596.22;;;13.57
19061;BMP280;9663;48.996;8.334;2023-12-20T07:00:34;100601.41;;;13.51
19061;BMP280;9663;48.996;8.334;2023-12-20T07:03:00;100610.75;;;13.46
19061;BMP280;9663;48.996;8.334;2023-12-20T07:05:26;100612.50;;;13.43
19061;BMP280;9663;48.996;8.334;2023-12-20T07:07:52;100621.88;;;13.39
19061;BMP280;9663;48.996;8.334;2023-12-20T07:10:18;100621.03;;;13.40
19061;BMP280;9663;48.996;8.334;2023-12-20T07:12:43;100624.44;;;13.39
19061;BMP280;9663;48.996;8.334;2023-12-20T07:15:10;100621.03;;;13.40
19061;BMP280;9663;48.996;8.334;2023-12-20T07:17:35;100618.50;;;13.40
19061;BMP280;9663;48.996;8.334;2023-12-20T07:20:01;100621.88;;;13.41
19061;BMP280;9663;48.996;8.334;2023-12-20T07:22:30;100626.13;;;13.42
19061;BMP280;9663;48.996;8.334;2023-12-20T07:24:58;100621.84;;;13.42
19061;BMP280;9663;48.996;8.334;2023-12-20T07:27:24;100626.13;;;13.42
19061;BMP280;9663;48.996;8.334;2023-12-20T07:29:49;100626.97;;;13.39
19061;BMP280;9663;48.996;8.334;2023-12-20T07:32:15;100615.16;;;13.34
19061;BMP280;9663;48.996;8.334;2023-12-20T07:34:41;100621.97;;;13.30
19061;BMP280;9663;48.996;8.334;2023-12-20T07:37:06;100635.56;;;13.31
19061;BMP280;9663;48.996;8.334;2023-12-20T07:39:32;100641.56;;;13.27
19061;BMP280;9663;48.996;8.334;2023-12-20T07:41:57;100647.50;;;13.24
19061;BMP280;9663;48.996;8.334;2023-12-20T07:44:23;100644.13;;;13.23
19061;BMP280;9663;48.996;8.334;2023-12-20T07:46:49;100644.13;;;13.23
19061;BMP280;9663;48.996;8.334;2023-12-20T07:49:15;100645.88;;;13.19
19061;BMP280;9663;48.996;8.334;2023-12-20T07:51:41;100653.50;;;13.19
19061;BMP280;9663;48.996;8.334;2023-12-20T07:54:06;100642.50;;;13.16
19061;BMP280;9663;48.996;8.334;2023-12-20T07:56:33;100654.41;;;13.14
19061;BMP280;9663;48.996;8.334;2023-12-20T07:58:59;100662.06;;;13.14
19061;BMP280;9663;48.996;8.334;2023-12-20T08:01:24;100662.91;;;13.13
19061;BMP280;9663;48.996;8.334;2023-12-20T08:03:50;100665.44;;;13.13
19061;BMP280;9663;48.996;8.334;2023-12-20T08:06:16;100674.78;;;13.14
19061;BMP280;9663;48.996;8.334;2023-12-20T08:08:43;100672.25;;;13.14
19061;BMP280;9663;48.996;8.334;2023-12-20T08:11:08;100677.28;;;13.17
19061;BMP280;9663;48.996;8.334;2023-12-20T08:13:34;100664.53;;;13.17
19061;BMP280;9663;48.996;8.334;2023-12-20T08:15:59;100673.00;;;13.22
19061;BMP280;9663;48.996;8.334;2023-12-20T08:18:25;100684.00;;;13.26
19061;BMP280;9663;48.996;8.334;2023-12-20T08:20:51;100674.66;;;13.27
19061;BMP280;9663;48.996;8.334;2023-12-20T08:23:19;100679.75;;;13.30
19061;BMP280;9663;48.996;8.334;2023-12-20T08:25:46;100678.88;;;13.29
19061;BMP280;9663;48.996;8.334;2023-12-20T08:28:12;100679.75;;;13.30
19061;BMP280;9663;48.996;8.334;2023-12-20T08:30:38;100681.41;;;13.29
19061;BMP280;9663;48.996;8.334;2023-12-20T08:33:04;100683.13;;;13.30
19061;BMP280;9663;48.996;8.334;2023-12-20T08:35:30;100683.13;;;13.30
19061;BMP280;9663;48.996;8.334;2023-12-20T08:37:56;100688.22;;;13.30
19061;BMP280;9663;48.996;8.334;2023-12-20T08:40:22;100694.97;;;13.33
19061;BMP280;9663;48.996;8.334;2023-12-20T08:42:47;100708.59;;;13.33
19061;BMP280;9663;48.996;8.334;2023-12-20T08:45:13;100701.75;;;13.35
19061;BMP280;9663;48.996;8.334;2023-12-20T08:47:38;100703.44;;;13.38
19061;BMP280;9663;48.996;8.334;2023-12-20T08:50:07;100703.38;;;13.42
19061;BMP280;9663;48.996;8.334;2023-12-20T08:52:32;100702.50;;;13.46
19061;BMP280;9663;48.996;8.334;2023-12-20T08:54:58;100688.88;;;13.50
19061;BMP280;9663;48.996;8.334;2023-12-20T08:57:24;100695.63;;;13.54
19061;BMP280;9663;48.996;8.334;2023-12-20T08:59:50;100698.97;;;13.59
19061;BMP280;9663;48.996;8.334;2023-12-20T09:02:17;100683.66;;;13.64
19061;BMP280;9663;48.996;8.334;2023-12-20T09:04:43;100704.84;;;13.70
19061;BMP280;9663;48.996;8.334;2023-12-20T09:07:27;100689.53;;;13.71
19061;BMP280;9663;48.996;8.334;2023-12-20T09:09:55;100691.13;;;13.81
19061;BMP280;9663;48.996;8.334;2023-12-20T09:12:22;100692.72;;;13.91
19061;BMP280;9663;48.996;8.334;2023-12-20T09:14:49;100688.34;;;14.01
19061;BMP280;9663;48.996;8.334;2023-12-20T09:17:16;100688.31;;;14.07
19061;BMP280;9663;48.996;8.334;2023-12-20T09:19:43;100681.44;;;14.10
19061;BMP280;9663;48.996;8.334;2023-12-20T09:22:12;100683.94;;;14.17
19061;BMP280;9663;48.996;8.334;2023-12-20T09:24:38;100685.53;;;14.24
19061;BMP280;9663;48.996;8.334;2023-12-20T09:27:05;100688.06;;;14.27
19061;BMP280;9663;48.996;8.334;2023-12-20T09:29:31;100679.50;;;14.31
19061;BMP280;9663;48.996;8.334;2023-12-20T09:31:57;100679.44;;;14.34
19061;BMP280;9663;48.996;8.334;2023-12-20T09:34:23;100687.13;;;14.33
19061;BMP280;9663;48.996;8.334;2023-12-20T09:36:49;100687.13;;;14.31
19061;BMP280;9663;48.996;8.334;2023-12-20T09:39:17;100687.16;;;14.30
19061;BMP280;9663;48.996;8.334;2023-12-20T09:42:05;100688.03;;;14.29
19061;BMP280;9663;48.996;8.334;2023-12-20T09:44:32;100698.13;;;14.36
19061;BMP280;9663;48.996;8.334;2023-12-20T09:47:05;100708.28;;;14.42
19061;BMP280;9663;48.996;8.334;2023-12-20T09:49:32;100704.25;;;14.86
19061;BMP280;9663;48.996;8.334;2023-12-20T09:52:00;100712.25;;;14.62
19061;BMP280;9663;48.996;8.334;2023-12-20T09:54:28;100706.28;;;14.65
19061;BMP280;9663;48.996;8.334;2023-12-20T09:56:54;100701.97;;;14.67
19061;BMP280;9663;48.996;8.334;2023-12-20T09:59:19;100707.06;;;14.70
19061;BMP280;9663;48.996;8.334;2023-12-20T10:01:45;100701.91;;;14.73
19061;BMP280;9663;48.996;8.334;2023-12-20T10:04:12;100689.19;;;14.70
19061;BMP280;9663;48.996;8.334;2023-12-20T10:06:44;100690.91;;;14.69
19061;BMP280;9663;48.996;8.334;2023-12-20T10:09:11;100696.03;;;14.68
19061;BMP280;9663;48.996;8.334;2023-12-20T10:11:38;100694.31;;;14.67
19061;BMP280;9663;48.996;8.334;2023-12-20T10:14:06;100699.44;;;14.65
19061;BMP280;9663;48.996;8.334;2023-12-20T10:16:33;100699.47;;;14.62
19061;BMP280;9663;48.996;8.334;2023-12-20T10:19:00;100686.81;;;14.58
19061;BMP280;9663;48.996;8.334;2023-12-20T10:21:29;100686.00;;;14.54
19061;BMP280;9663;48.996;8.334;2023-12-20T10:23:57;100682.63;;;14.51
19061;BMP280;9663;48.996;8.334;2023-12-20T10:26:26;100679.19;;;14.53
19061;BMP280;9663;48.996;8.334;2023-12-20T10:29:00;100689.44;;;14.52
19061;BMP280;9663;48.996;8.334;2023-12-20T10:31:33;100675.84;;;14.50
19061;BMP280;9663;48.996;8.334;2023-12-20T10:34:02;100679.28;;;14.46
19061;BMP280;9663;48.996;8.334;2023-12-20T10:36:31;100678.50;;;14.43
19061;BMP280;9663;48.996;8.334;2023-12-20T10:38:58;100684.50;;;14.39
19061;BMP280;9663;48.996;8.334;2023-12-20T10:41:32;100670.06;;;14.38
19061;BMP280;9663;48.996;8.334;2023-12-20T10:44:03;100673.44;;;14.40
19061;BMP280;9663;48.996;8.334;2023-12-20T10:46:31;100674.25;;;14.43
19061;BMP280;9663;48.996;8.334;2023-12-20T10:49:02;100658.03;;;14.47
19061;BMP280;9663;48.996;8.334;2023-12-20T10:51:28;100658.78;;;14.52
19061;BMP280;9663;48.996;8.334;2023-12-20T10:53:56;100646.81;;;14.57
19061;BMP280;9663;48.996;8.334;2023-12-20T10:56:22;100656.97;;;14.61
19061;BMP280;9663;48.996;8.334;2023-12-20T10:58:51;100649.28;;;14.64
19061;BMP280;9663;48.996;8.334;2023-12-20T11:01:18;100653.47;;;14.67
19061;BMP280;9663;48.996;8.334;2023-12-20T11:03:54;100648.34;;;14.70
19061;BMP280;9663;48.996;8.334;2023-12-20T11:09:31;100644.03;;;14.72
19061;BMP280;9663;48.996;8.334;2023-12-20T11:14:50;100628.47;;;14.87
19061;BMP280;9663;48.996;8.334;2023-12-20T11:17:16;100635.09;;;14.98
19061;BMP280;9663;48.996;8.334;2023-12-20T11:22:30;100629.13;;;15.00
19061;BMP280;9663;48.996;8.334;2023-12-20T11:25:06;100646.13;;;15.01
19061;BMP280;9663;48.996;8.334;2023-12-20T11:27:44;100622.31;;;14.99
19061;BMP280;9663;48.996;8.334;2023-12-20T11:30:11;100625.69;;;15.01
19061;BMP280;9663;48.996;8.334;2023-12-20T11:32:40;100636.72;;;15.03
19061;BMP280;9663;48.996;8.334;2023-12-20T11:37:38;100635.78;;;15.09
19061;BMP280;9663;48.996;8.334;2023-12-20T11:40:13;100632.31;;;15.11
19061;BMP280;9663;48.996;8.334;2023-12-20T11:42:45;100618.72;;;15.11
19061;BMP280;9663;48.996;8.334;2023-12-20T11:45:17;100614.50;;;15.08
19061;BMP280;9663;48.996;8.334;2023-12-20T11:47:47;100611.13;;;15.06
19061;BMP280;9663;48.996;8.334;2023-12-20T11:50:16;100618.84;;;15.03
19061;BMP280;9663;48.996;8.334;2023-12-20T11:52:41;100613.72;;;15.03
19061;BMP280;9663;48.996;8.334;2023-12-20T11:55:07;100624.00;;;15.02
19061;BMP280;9663;48.996;8.334;2023-12-20T11:57:34;100614.59;;;15.04
19061;BMP280;9663;48.996;8.334;2023-12-20T11:59:59;100626.44;;;15.08
19061;BMP280;9663;48.996;8.334;2023-12-20T12:02:25;100626.38;;;15.12
19061;BMP280;9663;48.996;8.334;2023-12-20T12:04:51;100626.34;;;15.15
19061;BMP280;9663;48.996;8.334;2023-12-20T12:07:17;100621.09;;;15.23
19061;BMP280;9663;48.996;8.334;2023-12-20T12:09:43;100597.22;;;15.25
19061;BMP280;9663;48.996;8.334;2023-12-20T12:12:11;100607.47;;;15.22
19061;BMP280;9663;48.996;8.334;2023-12-20T12:14:38;100609.22;;;15.20
19061;BMP280;9663;48.996;8.334;2023-12-20T12:17:11;100596.50;;;15.14
19061;BMP280;9663;48.996;8.334;2023-12-20T12:19:39;100595.78;;;15.08
19061;BMP280;9663;48.996;8.334;2023-12-20T12:22:06;100606.91;;;15.05
19061;BMP280;9663;48.996;8.334;2023-12-20T12:24:40;100602.69;;;15.01
19061;BMP280;9663;48.996;8.334;2023-12-20T12:27:07;100604.44;;;14.99
19061;BMP280;9663;48.996;8.334;2023-12-20T12:29:34;100595.19;;;14.93
19061;BMP280;9663;48.996;8.334;2023-12-20T12:32:01;100613.13;;;14.88
19061;BMP280;9663;48.996;8.334;2023-12-20T12:34:30;100603.84;;;14.84
19061;BMP280;9663;48.996;8.334;2023-12-20T12:36:57;100603.94;;;14.78
19061;BMP280;9663;48.996;8.334;2023-12-20T12:39:24;100599.69;;;14.77
19061;BMP280;9663;48.996;8.334;2023-12-20T12:41:53;100595.50;;;14.75
19061;BMP280;9663;48.996;8.334;2023-12-20T12:44:19;100592.13;;;14.73
19061;BMP280;9663;48.996;8.334;2023-12-20T12:46:46;100589.59;;;14.70
19061;BMP280;9663;48.996;8.334;2023-12-20T12:49:13;100596.47;;;14.68
19061;BMP280;9663;48.996;8.334;2023-12-20T12:51:38;100592.22;;;14.65
19061;BMP280;9663;48.996;8.334;2023-12-20T12:54:04;100593.16;;;14.61
19061;BMP280;9663;48.996;8.334;2023-12-20T12:56:30;100601.66;;;14.60
19061;BMP280;9663;48.996;8.334;2023-12-20T12:58:56;100602.56;;;14.59
19061;BMP280;9663;48.996;8.334;2023-12-20T13:01:21;100605.94;;;14.60
19061;BMP280;9663;48.996;8.334;2023-12-20T13:03:47;100601.69;;;14.59
19061;BMP280;9663;48.996;8.334;2023-12-20T13:06:13;100599.16;;;14.56
19061;BMP280;9663;48.996;8.334;2023-12-20T13:08:39;100606.06;;;14.51
19061;BMP280;9663;48.996;8.334;2023-12-20T13:11:05;100590.78;;;14.50
19061;BMP280;9663;48.996;8.334;2023-12-20T13:13:31;100590.84;;;14.47
19061;BMP280;9663;48.996;8.334;2023-12-20T13:15:57;100605.28;;;14.46
19061;BMP280;9663;48.996;8.334;2023-12-20T13:18:23;100593.41;;;14.44
19061;BMP280;9663;48.996;8.334;2023-12-20T13:20:49;100582.38;;;14.43
19061;BMP280;9663;48.996;8.334;2023-12-20T13:23:15;100599.41;;;14.41
19061;BMP280;9663;48.996;8.334;2023-12-20T13:25:44;100602.84;;;14.40
19061;BMP280;9663;48.996;8.334;2023-12-20T13:28:13;100599.41;;;14.41
19061;BMP280;9663;48.996;8.334;2023-12-20T13:30:39;100600.28;;;14.40
19061;BMP280;9663;48.996;8.334;2023-12-20T13:33:06;100599.41;;;14.41
19061;BMP280;9663;48.996;8.334;2023-12-20T13:35:33;100578.97;;;14.41
19061;BMP280;9663;48.996;8.334;2023-12-20T13:38:00;100572.16;;;14.43
19061;BMP280;9663;48.996;8.334;2023-12-20T13:40:26;100571.25;;;14.46
19061;BMP280;9663;48.996;8.334;2023-12-20T13:42:52;100580.63;;;14.45
19061;BMP280;9663;48.996;8.334;2023-12-20T13:45:18;100573.00;;;14.44
19061;BMP280;9663;48.996;8.334;2023-12-20T13:47:43;100551.75;;;14.43
19061;BMP280;9663;48.996;8.334;2023-12-20T13:50:09;100561.09;;;14.43
19061;BMP280;9663;48.996;8.334;2023-12-20T13:52:35;100564.53;;;14.42
19061;BMP280;9663;48.996;8.334;2023-12-20T13:55:02;100557.72;;;14.41
19061;BMP280;9663;48.996;8.334;2023-12-20T13:57:27;100542.41;;;14.42
19061;BMP280;9663;48.996;8.334;2023-12-20T13:59:55;100544.13;;;14.42
19061;BMP280;9663;48.996;8.334;2023-12-20T14:02:23;100538.16;;;14.41
19061;BMP280;9663;48.996;8.334;2023-12-20T14:04:48;100533.94;;;14.40
19061;BMP280;9663;48.996;8.334;2023-12-20T14:07:14;100536.53;;;14.37
19061;BMP280;9663;48.996;8.334;2023-12-20T14:09:41;100547.63;;;14.35
19061;BMP280;9663;48.996;8.334;2023-12-20T14:12:11;100545.13;;;14.32
19061;BMP280;9663;48.996;8.334;2023-12-20T14:14:37;100545.13;;;14.30
19061;BMP280;9663;48.996;8.334;2023-12-20T14:17:03;100534.97;;;14.27